Portada
METAR-TAF:

METAR-TAF

Aeropuertos :

Vamdrup

Kolding, Dinamarca

latitud: 55-26N, longitud: 009-20E, altitud: 44 m

Observación

El informe se hizo hace 18 minutos, a las 00:50 UTC
Viento 12 kt del sur-suroeste
Temperatura 5°C
Humedad 93%
Presión 1002 hPa

METAR: EKVD 190050Z AUTO 21012KT //// ///////// 05/04 Q1002

Hora: 02:08 (01:08 UTC)

Pronóstico

El informe se hizo hace 13 horas y 16 minutos, a las 11:52 UTC
Pronóstico válido del 18 a las 12 UTC al 18 a las 17 UTC
Viento 15 kt del oeste-suroeste
Visibilidad 10 km o más
Cielo nuboso a una altura de 2000 ft
Temporalmente
del 18 a las 12 UTC al 18 a las 17 UTC
Viento 20 kt del oeste-suroeste con ráfagas de 30 kt
Nubes dispersas a una altura de 2000 ft, Cumulonimbus.

TAF: EKVD 181152Z 1812/1817 24015KT 9999 BKN020 TEMPO 1812/1817 25020G30KT SCT020CB

Observaciones y pronósticos meteorológicos de más de 4000 aeropuertos (mensajes METAR y TAF).

Los puntos amarillos y rojos representan las estaciones disponibles.

Ponga el ratón en el punto deseado para ver el nombre de la estación.

Haga clic para ver las observaciones y los pronósticos meteorológicos.

Para cambiar el mapa : haga clic en los botones verdes con una cruz de color negro para hacer un zoom, en el botón verde con un guión para alejar o en las flechas verdes para mapas adyacentes.


METAR-TAF: